createdAt,value
2019-04-26T00:01:55.309Z,10.00
2019-04-26T00:08:00.007Z,10.00
2019-04-26T00:14:30.371Z,10.10
2019-04-26T00:20:34.700Z,10.10
2019-04-26T00:26:39.021Z,10.20
2019-04-26T00:32:43.340Z,10.10
2019-04-26T00:38:47.612Z,10.20
2019-04-26T00:44:52.251Z,10.40
2019-04-26T00:50:57.327Z,10.10
2019-04-26T00:57:02.963Z,10.00
2019-04-26T01:03:07.440Z,10.00
2019-04-26T01:09:11.937Z,10.00
2019-04-26T01:15:18.808Z,10.10
2019-04-26T01:21:24.816Z,10.30
2019-04-26T01:27:30.713Z,10.30
2019-04-26T01:33:35.919Z,10.00
2019-04-26T01:39:45.255Z,9.90
2019-04-26T01:46:03.334Z,9.90
2019-04-26T01:52:11.200Z,9.90
2019-04-26T01:58:15.599Z,9.90
2019-04-26T02:04:21.583Z,9.80
2019-04-26T02:10:28.558Z,9.70
2019-04-26T02:16:33.344Z,9.70
2019-04-26T02:22:48.633Z,9.60
2019-04-26T02:28:52.976Z,9.70
2019-04-26T02:34:57.876Z,9.80
2019-04-26T02:41:02.244Z,9.70
2019-04-26T02:47:46.672Z,9.90
2019-04-26T02:54:04.695Z,10.00
2019-04-26T03:00:12.607Z,9.70
2019-04-26T03:06:17.001Z,9.80
2019-04-26T03:12:24.879Z,9.50
2019-04-26T03:18:50.833Z,9.50
2019-04-26T03:25:02.943Z,9.40
2019-04-26T03:31:25.243Z,9.40
2019-04-26T03:38:00.947Z,9.50
2019-04-26T03:44:12.121Z,9.40
2019-04-26T03:50:22.696Z,9.40
2019-04-26T03:57:06.216Z,9.30
2019-04-26T04:03:22.418Z,9.30
2019-04-26T04:09:28.498Z,9.20
2019-04-26T04:15:40.437Z,9.40
2019-04-26T04:21:56.534Z,9.30
2019-04-26T04:28:13.511Z,9.40
2019-04-26T04:34:25.514Z,9.20
2019-04-26T04:40:51.364Z,9.10
2019-04-26T04:47:25.402Z,9.00
2019-04-26T04:54:00.052Z,8.80
2019-04-26T05:00:30.462Z,8.70
2019-04-26T05:07:05.547Z,8.70
2019-04-26T05:13:37.756Z,8.70
2019-04-26T05:20:17.453Z,8.70
2019-04-26T05:26:54.115Z,8.70
2019-04-26T05:33:24.429Z,8.80
2019-04-26T05:39:59.321Z,8.80
2019-04-26T05:46:51.969Z,9.30
2019-04-26T05:53:13.867Z,10.10
2019-04-26T05:59:35.668Z,11.20
2019-04-26T06:06:05.481Z,11.20
2019-04-26T06:12:21.842Z,11.60
2019-04-26T06:18:48.013Z,12.20
2019-04-26T06:25:28.920Z,12.70
2019-04-26T06:31:40.328Z,13.40
2019-04-26T06:38:15.894Z,13.70
2019-04-26T06:44:25.497Z,13.90
2019-04-26T06:50:37.782Z,14.40
2019-04-26T06:57:11.572Z,15.00
2019-04-26T07:03:23.749Z,15.50
2019-04-26T07:09:31.967Z,15.70
2019-04-26T07:16:22.276Z,16.40
2019-04-26T07:22:57.540Z,16.80
2019-04-26T07:29:49.158Z,16.70
2019-04-26T07:36:29.229Z,17.30
2019-04-26T07:43:06.016Z,17.40
2019-04-26T07:50:03.504Z,17.10
2019-04-26T07:56:29.639Z,17.20
2019-04-26T08:02:55.443Z,17.30
2019-04-26T08:09:24.195Z,17.20
2019-04-26T08:15:43.113Z,17.30
2019-04-26T08:21:49.537Z,17.10
2019-04-26T08:27:56.321Z,17.60
2019-04-26T08:34:06.030Z,18.00
2019-04-26T08:40:16.428Z,18.30
2019-04-26T08:46:41.893Z,18.50
2019-04-26T08:52:49.082Z,18.70
2019-04-26T08:58:57.417Z,19.00
2019-04-26T09:05:30.679Z,19.10
2019-04-26T09:11:37.116Z,19.20
2019-04-26T09:17:41.514Z,19.40
2019-04-26T09:24:03.332Z,19.40
2019-04-26T09:30:33.805Z,19.40
2019-04-26T09:36:33.637Z,19.50
2019-04-26T09:43:15.193Z,19.50
2019-04-26T09:49:40.847Z,19.40
2019-04-26T09:55:43.652Z,19.50
2019-04-26T10:01:48.024Z,19.30
2019-04-26T10:07:52.389Z,19.00
2019-04-26T10:14:05.534Z,19.00
2019-04-26T10:20:10.250Z,19.00
2019-04-26T10:26:14.684Z,19.20
2019-04-26T10:32:21.775Z,19.10
2019-04-26T10:38:25.471Z,19.30
2019-04-26T10:44:29.904Z,19.30
2019-04-26T10:50:34.495Z,19.30
2019-04-26T10:56:43.424Z,19.40
2019-04-26T11:02:47.748Z,19.30
2019-04-26T11:08:52.123Z,19.20
2019-04-26T11:14:56.928Z,19.30
2019-04-26T11:21:01.498Z,19.40
2019-04-26T11:27:09.674Z,19.30
2019-04-26T11:33:12.803Z,19.30
2019-04-26T11:39:17.395Z,19.20
2019-04-26T11:45:21.882Z,19.30
2019-04-26T11:51:27.502Z,19.10
2019-04-26T11:57:32.083Z,19.10
2019-04-26T12:03:36.462Z,19.00
2019-04-26T12:09:43.466Z,18.90
2019-04-26T12:15:47.823Z,18.80
2019-04-26T12:21:52.121Z,18.70
2019-04-26T12:27:56.485Z,18.60
2019-04-26T12:34:01.077Z,18.40
2019-04-26T12:40:11.267Z,18.60
2019-04-26T12:46:35.545Z,18.70
2019-04-26T12:52:39.833Z,18.90
2019-04-26T12:58:45.614Z,18.90
2019-04-26T13:04:50.243Z,19.10
2019-04-26T13:11:22.488Z,19.20
2019-04-26T13:17:35.755Z,19.20
2019-04-26T13:23:38.057Z,19.20
2019-04-26T13:29:42.571Z,19.10
2019-04-26T13:36:01.880Z,19.20
2019-04-26T13:42:02.924Z,19.10
2019-04-26T13:48:19.155Z,19.20
2019-04-26T13:54:22.801Z,18.80
2019-04-26T14:00:30.300Z,18.70
2019-04-26T14:06:34.630Z,19.10
2019-04-26T14:12:39.045Z,17.80
2019-04-26T14:18:43.363Z,16.60
2019-04-26T14:24:56.924Z,16.50
2019-04-26T14:30:59.784Z,16.80
2019-04-26T14:37:06.711Z,16.80
2019-04-26T14:43:10.280Z,17.90
2019-04-26T14:49:14.685Z,18.50
2019-04-26T14:55:21.309Z,18.10
2019-04-26T15:01:47.001Z,15.50
2019-04-26T15:07:53.573Z,14.70
2019-04-26T15:13:57.344Z,14.80
2019-04-26T15:20:03.351Z,15.20
2019-04-26T15:26:07.773Z,15.20
2019-04-26T15:32:13.055Z,15.50
2019-04-26T15:38:17.757Z,15.70
2019-04-26T15:44:46.959Z,15.70
2019-04-26T15:50:53.606Z,15.90
2019-04-26T15:56:57.401Z,17.20
2019-04-26T16:03:03.847Z,17.20
2019-04-26T16:09:08.942Z,17.00
2019-04-26T16:15:14.848Z,16.60
2019-04-26T16:21:19.450Z,16.60
2019-04-26T16:27:24.676Z,16.10
2019-04-26T16:33:33.569Z,16.30
2019-04-26T16:39:40.055Z,17.00
2019-04-26T16:45:44.813Z,16.90
2019-04-26T16:51:53.867Z,17.40
2019-04-26T16:57:58.115Z,17.90
2019-04-26T17:04:03.966Z,17.80
2019-04-26T17:10:07.566Z,17.70
2019-04-26T17:16:12.827Z,17.10
2019-04-26T17:22:44.548Z,16.40
2019-04-26T17:28:42.687Z,15.60
2019-04-26T17:34:50.136Z,15.40
2019-04-26T17:40:54.443Z,16.10
2019-04-26T17:47:01.899Z,16.70
2019-04-26T17:53:06.528Z,16.70
2019-04-26T17:59:30.261Z,17.00
2019-04-26T18:05:19.033Z,17.50
2019-04-26T18:11:25.046Z,17.00
2019-04-26T18:17:47.006Z,17.30
2019-04-26T18:23:54.667Z,17.90
2019-04-26T18:29:59.834Z,18.00
2019-04-26T18:36:04.633Z,17.90
2019-04-26T18:42:09.204Z,17.50
2019-04-26T18:48:13.853Z,17.40
2019-04-26T18:54:26.148Z,16.50
2019-04-26T19:00:35.765Z,16.80
2019-04-26T19:06:42.299Z,16.80
2019-04-26T19:12:47.554Z,15.00
2019-04-26T19:18:55.824Z,14.10
2019-04-26T19:25:01.966Z,13.60
2019-04-26T19:31:06.572Z,13.50
2019-04-26T19:37:11.161Z,13.40
2019-04-26T19:43:28.230Z,13.00
2019-04-26T19:50:03.083Z,13.50
2019-04-26T19:56:27.557Z,14.00
2019-04-26T20:02:35.809Z,14.80
2019-04-26T20:08:44.477Z,13.20
2019-04-26T20:14:49.237Z,13.50
2019-04-26T20:20:48.157Z,13.10
2019-04-26T20:26:52.526Z,13.10
2019-04-26T20:32:57.394Z,13.00
2019-04-26T20:39:01.838Z,12.60
2019-04-26T20:45:08.557Z,13.20
2019-04-26T20:51:12.962Z,13.10
2019-04-26T20:57:17.538Z,13.10
2019-04-26T21:03:26.059Z,12.50
2019-04-26T21:09:27.953Z,11.70
2019-04-26T21:15:35.750Z,11.70
2019-04-26T21:21:41.981Z,11.50
2019-04-26T21:27:53.778Z,11.40
2019-04-26T21:34:12.457Z,11.30
2019-04-26T21:40:28.932Z,11.30
2019-04-26T21:46:33.957Z,11.10
2019-04-26T21:52:38.595Z,11.00
2019-04-26T21:58:43.928Z,10.90
2019-04-26T22:04:48.975Z,10.90
2019-04-26T22:10:53.521Z,11.00
2019-04-26T22:17:16.917Z,11.00
2019-04-26T22:23:33.742Z,11.00
2019-04-26T22:29:41.025Z,11.00
2019-04-26T22:35:45.360Z,11.20
2019-04-26T22:41:49.814Z,11.20
2019-04-26T22:47:58.673Z,11.30
2019-04-26T22:54:06.168Z,11.40
2019-04-26T23:00:09.239Z,11.50
2019-04-26T23:06:15.278Z,11.50
2019-04-26T23:12:30.249Z,11.50
2019-04-26T23:18:53.617Z,11.50
2019-04-26T23:24:59.579Z,12.30
2019-04-26T23:31:07.939Z,12.30
2019-04-26T23:37:09.999Z,12.10
2019-04-26T23:43:14.419Z,11.90
2019-04-26T23:49:20.344Z,12.00
2019-04-26T23:55:24.608Z,12.20
